createdAt,value
2023-02-19T00:02:27.417Z,3.20
2023-02-19T00:04:54.824Z,3.20
2023-02-19T00:07:23.637Z,3.20
2023-02-19T00:09:50.911Z,3.30
2023-02-19T00:12:21.636Z,3.50
2023-02-19T00:14:53.104Z,3.60
2023-02-19T00:17:20.602Z,3.60
2023-02-19T00:19:47.888Z,3.60
2023-02-19T00:22:15.388Z,3.50
2023-02-19T00:24:44.292Z,3.50
2023-02-19T00:27:11.889Z,3.60
2023-02-19T00:29:38.995Z,3.60
2023-02-19T00:32:07.087Z,3.60
2023-02-19T00:34:34.676Z,3.60
2023-02-19T00:37:02.269Z,3.50
2023-02-19T00:39:30.100Z,3.50
2023-02-19T00:41:57.768Z,3.60
2023-02-19T00:44:24.987Z,3.50
2023-02-19T00:46:52.632Z,3.50
2023-02-19T00:49:22.481Z,3.50
2023-02-19T00:51:51.898Z,3.60
2023-02-19T00:54:19.935Z,3.50
2023-02-19T00:56:47.543Z,3.40
2023-02-19T00:59:14.907Z,3.40
2023-02-19T01:01:44.689Z,3.50
2023-02-19T01:04:12.471Z,3.50
2023-02-19T01:06:40.026Z,3.60
2023-02-19T01:09:08.002Z,3.60
2023-02-19T01:11:36.029Z,3.60
2023-02-19T01:14:06.029Z,3.60
2023-02-19T01:16:33.783Z,3.50
2023-02-19T01:19:01.374Z,3.60
2023-02-19T01:21:30.717Z,3.60
2023-02-19T01:23:59.445Z,3.60
2023-02-19T01:26:32.287Z,3.60
2023-02-19T01:29:04.194Z,3.70
2023-02-19T01:31:31.864Z,3.70
2023-02-19T01:34:03.884Z,3.70
2023-02-19T01:36:37.575Z,3.70
2023-02-19T01:39:07.248Z,3.70
2023-02-19T01:41:39.670Z,3.70
2023-02-19T01:44:12.616Z,3.70
2023-02-19T01:46:42.550Z,3.60
2023-02-19T01:49:20.216Z,3.60
2023-02-19T01:52:33.646Z,3.60
2023-02-19T01:55:03.411Z,3.60
2023-02-19T01:57:36.876Z,3.50
2023-02-19T02:00:08.660Z,3.60
2023-02-19T02:02:37.123Z,3.60
2023-02-19T02:05:04.617Z,3.70
2023-02-19T02:07:50.803Z,3.60
2023-02-19T02:10:22.844Z,3.60
2023-02-19T02:12:56.432Z,3.60
2023-02-19T02:15:25.955Z,3.60
2023-02-19T02:18:05.382Z,3.60
2023-02-19T02:20:53.562Z,3.60
2023-02-19T02:23:58.869Z,3.60
2023-02-19T02:27:04.401Z,3.60
2023-02-19T02:29:40.664Z,3.60
2023-02-19T02:32:26.000Z,3.50
2023-02-19T02:34:59.911Z,3.60
2023-02-19T02:37:33.344Z,3.50
2023-02-19T02:40:05.894Z,3.50
2023-02-19T02:42:35.383Z,3.60
2023-02-19T02:45:35.583Z,3.60
2023-02-19T02:48:18.646Z,3.60
2023-02-19T02:50:54.880Z,3.50
2023-02-19T02:53:48.209Z,3.40
2023-02-19T02:56:18.670Z,3.40
2023-02-19T02:58:47.565Z,3.40
2023-02-19T03:01:46.763Z,3.40
2023-02-19T03:04:22.330Z,3.40
2023-02-19T03:06:50.930Z,3.50
2023-02-19T03:09:32.563Z,3.50
2023-02-19T03:12:22.313Z,3.60
2023-02-19T03:15:11.510Z,3.50
2023-02-19T03:18:22.614Z,3.40
2023-02-19T03:20:54.963Z,3.40
2023-02-19T03:23:47.850Z,3.40
2023-02-19T03:26:16.618Z,3.30
2023-02-19T03:29:07.472Z,3.40
2023-02-19T03:31:38.118Z,3.40
2023-02-19T03:34:12.424Z,3.40
2023-02-19T03:36:53.670Z,3.40
2023-02-19T03:39:23.272Z,3.30
2023-02-19T03:41:50.358Z,3.20
2023-02-19T03:44:32.828Z,3.20
2023-02-19T03:47:08.405Z,3.20
2023-02-19T03:49:48.855Z,3.20
2023-02-19T03:52:22.174Z,3.20
2023-02-19T03:55:08.932Z,3.20
2023-02-19T03:57:57.910Z,3.20
2023-02-19T04:00:55.368Z,3.10
2023-02-19T04:03:40.465Z,3.00
2023-02-19T04:06:25.138Z,2.90
2023-02-19T04:08:56.631Z,2.80
2023-02-19T04:11:27.051Z,2.80
2023-02-19T04:14:14.224Z,2.80
2023-02-19T04:16:45.698Z,2.80
2023-02-19T04:19:17.504Z,2.80
2023-02-19T04:21:46.852Z,2.80
2023-02-19T04:24:23.218Z,2.80
2023-02-19T04:26:50.883Z,2.80
2023-02-19T04:29:18.018Z,2.80
2023-02-19T04:31:45.538Z,2.80
2023-02-19T04:34:14.741Z,2.70
2023-02-19T04:36:42.267Z,2.60
2023-02-19T04:39:09.480Z,2.60
2023-02-19T04:41:37.483Z,2.70
2023-02-19T04:44:04.823Z,2.70
2023-02-19T04:46:32.536Z,2.70
2023-02-19T04:48:59.674Z,2.80
2023-02-19T04:51:27.130Z,2.90
2023-02-19T04:53:56.417Z,2.80
2023-02-19T04:56:24.094Z,2.70
2023-02-19T04:58:51.500Z,2.70
2023-02-19T05:01:19.393Z,2.70
2023-02-19T05:03:46.686Z,2.70
2023-02-19T05:06:17.454Z,2.80
2023-02-19T05:08:44.665Z,2.90
2023-02-19T05:11:13.109Z,2.80
2023-02-19T05:13:40.984Z,2.70
2023-02-19T05:16:16.665Z,2.70
2023-02-19T05:18:45.212Z,2.80
2023-02-19T05:21:13.534Z,2.80
2023-02-19T05:23:41.310Z,2.70
2023-02-19T05:26:13.328Z,2.70
2023-02-19T05:28:40.554Z,2.70
2023-02-19T05:31:11.227Z,2.70
2023-02-19T05:33:39.049Z,2.70
2023-02-19T05:36:09.625Z,2.70
2023-02-19T05:38:38.038Z,2.80
2023-02-19T05:41:18.947Z,2.80
2023-02-19T05:43:47.981Z,2.80
2023-02-19T05:46:17.808Z,2.90
2023-02-19T05:48:44.988Z,3.00
2023-02-19T05:51:16.107Z,2.90
2023-02-19T05:53:44.838Z,2.90
2023-02-19T05:56:35.904Z,3.00
2023-02-19T05:59:15.219Z,2.90
2023-02-19T06:01:43.105Z,2.90
2023-02-19T06:04:14.511Z,2.90
2023-02-19T06:06:43.007Z,2.90
2023-02-19T06:09:10.674Z,3.00
2023-02-19T06:11:38.623Z,2.90
2023-02-19T06:14:06.605Z,2.80
2023-02-19T06:16:34.555Z,3.00
2023-02-19T06:19:05.383Z,3.00
2023-02-19T06:21:33.674Z,3.00
2023-02-19T06:24:09.026Z,3.00
2023-02-19T06:26:36.984Z,3.10
2023-02-19T06:29:04.448Z,3.10
2023-02-19T06:31:32.200Z,3.10
2023-02-19T06:33:59.461Z,3.10
2023-02-19T06:36:28.402Z,3.20
2023-02-19T06:39:00.162Z,3.10
2023-02-19T06:41:27.720Z,3.10
2023-02-19T06:43:55.852Z,3.10
2023-02-19T06:46:23.508Z,3.30
2023-02-19T06:48:51.781Z,3.30
2023-02-19T06:51:22.722Z,3.30
2023-02-19T06:53:50.379Z,3.20
2023-02-19T06:56:28.184Z,3.30
2023-02-19T06:59:01.893Z,3.30
2023-02-19T07:01:31.054Z,3.40
2023-02-19T07:03:58.361Z,3.40
2023-02-19T07:06:27.033Z,3.40
2023-02-19T07:08:56.198Z,3.20
2023-02-19T07:11:24.261Z,3.30
2023-02-19T07:13:56.230Z,3.30
2023-02-19T07:16:24.114Z,3.40
2023-02-19T07:18:51.347Z,3.40
2023-02-19T07:21:19.764Z,3.40
2023-02-19T07:23:47.640Z,3.40
2023-02-19T07:26:22.943Z,3.30
2023-02-19T07:28:52.318Z,3.40
2023-02-19T07:31:22.104Z,3.40
2023-02-19T07:33:50.025Z,3.30
2023-02-19T07:36:19.157Z,3.30
2023-02-19T07:38:46.744Z,3.50
2023-02-19T07:41:14.436Z,3.40
2023-02-19T07:43:41.709Z,3.60
2023-02-19T07:46:12.017Z,3.70
2023-02-19T07:48:41.176Z,3.80
2023-02-19T07:51:12.707Z,3.80
2023-02-19T07:53:41.297Z,3.90
2023-02-19T07:56:10.592Z,3.90
2023-02-19T07:58:40.252Z,3.80
2023-02-19T08:01:45.812Z,3.80
2023-02-19T08:04:14.581Z,3.60
2023-02-19T08:06:42.813Z,3.80
2023-02-19T08:09:10.522Z,3.80
2023-02-19T08:11:58.993Z,4.00
2023-02-19T08:14:27.644Z,3.80
2023-02-19T08:16:56.351Z,3.90
2023-02-19T08:19:23.729Z,4.00
2023-02-19T08:21:51.343Z,4.00
2023-02-19T08:24:18.537Z,4.00
2023-02-19T08:26:46.053Z,4.10
2023-02-19T08:29:13.271Z,4.00
2023-02-19T08:31:40.842Z,4.00
2023-02-19T08:34:08.769Z,4.10
2023-02-19T08:36:36.268Z,4.20
2023-02-19T08:39:03.656Z,4.30
2023-02-19T08:41:33.500Z,4.30
2023-02-19T08:44:00.755Z,4.40
2023-02-19T08:46:28.618Z,4.60
2023-02-19T08:48:55.949Z,4.50
2023-02-19T08:51:24.313Z,4.60
2023-02-19T08:53:51.621Z,4.50
2023-02-19T08:56:19.823Z,4.30
2023-02-19T08:58:48.572Z,4.30
2023-02-19T09:01:18.844Z,4.30
2023-02-19T09:03:46.705Z,4.40
2023-02-19T09:06:20.516Z,4.30
2023-02-19T09:08:47.703Z,4.10
2023-02-19T09:11:15.669Z,4.10
2023-02-19T09:13:43.700Z,4.20
2023-02-19T09:16:12.896Z,4.20
2023-02-19T09:18:40.293Z,4.30
2023-02-19T09:21:09.138Z,4.40
2023-02-19T09:23:37.374Z,4.40
2023-02-19T09:26:11.016Z,4.30
2023-02-19T09:28:42.199Z,4.40
2023-02-19T09:31:16.161Z,4.30
2023-02-19T09:33:48.929Z,4.40
2023-02-19T09:36:18.808Z,4.50
2023-02-19T09:38:46.235Z,4.60
2023-02-19T09:41:35.450Z,4.70
2023-02-19T09:44:05.699Z,4.70
2023-02-19T09:46:36.138Z,4.60
2023-02-19T09:49:11.724Z,4.70
2023-02-19T09:51:43.061Z,4.80
2023-02-19T09:54:27.274Z,4.80
2023-02-19T09:56:56.756Z,4.80
2023-02-19T09:59:31.579Z,4.90
2023-02-19T10:02:21.110Z,4.90
2023-02-19T10:04:51.705Z,4.90
2023-02-19T10:07:35.220Z,4.90
2023-02-19T10:10:18.016Z,5.10
2023-02-19T10:12:52.434Z,5.20
2023-02-19T10:15:27.058Z,5.30
2023-02-19T10:17:54.987Z,5.30
2023-02-19T10:20:24.945Z,5.40
2023-02-19T10:23:03.436Z,5.70
2023-02-19T10:25:32.284Z,6.00
2023-02-19T10:28:01.501Z,6.40
2023-02-19T10:30:32.105Z,7.00
2023-02-19T10:33:13.037Z,7.10
2023-02-19T10:35:58.309Z,6.50
2023-02-19T10:38:37.105Z,6.40
2023-02-19T10:41:24.120Z,6.30
2023-02-19T10:44:30.453Z,6.00
2023-02-19T10:47:00.317Z,6.00
2023-02-19T10:49:40.600Z,6.00
2023-02-19T10:52:21.504Z,6.00
2023-02-19T10:54:57.703Z,6.10
2023-02-19T10:57:33.166Z,6.30
2023-02-19T11:00:22.760Z,6.60
2023-02-19T11:02:53.082Z,6.70
2023-02-19T11:05:21.128Z,6.50
2023-02-19T11:07:52.437Z,6.00
2023-02-19T11:10:48.382Z,6.00
2023-02-19T11:13:32.647Z,6.00
2023-02-19T11:16:01.636Z,6.10
2023-02-19T11:18:33.075Z,6.40
2023-02-19T11:21:07.083Z,6.50
2023-02-19T11:23:44.349Z,6.50
2023-02-19T11:26:38.289Z,6.50
2023-02-19T11:29:23.603Z,6.30
2023-02-19T11:31:51.935Z,6.30
2023-02-19T11:34:21.430Z,6.30
2023-02-19T11:37:09.223Z,6.10
2023-02-19T11:39:37.082Z,6.20
2023-02-19T11:42:22.287Z,6.20
2023-02-19T11:45:30.806Z,6.30
2023-02-19T11:48:27.022Z,6.30
2023-02-19T11:51:36.569Z,6.40
2023-02-19T11:54:26.594Z,6.30
2023-02-19T11:57:10.322Z,6.20
2023-02-19T11:59:49.078Z,6.00
2023-02-19T12:02:44.925Z,6.00
2023-02-19T12:05:43.743Z,6.20
2023-02-19T12:08:29.025Z,6.20
2023-02-19T12:11:22.679Z,6.30
2023-02-19T12:13:55.374Z,6.30
2023-02-19T12:16:36.565Z,6.20
2023-02-19T12:19:27.364Z,6.50
2023-02-19T12:22:26.769Z,6.70
2023-02-19T12:25:06.780Z,6.50
2023-02-19T12:27:42.636Z,6.70
2023-02-19T12:30:22.410Z,7.20
2023-02-19T12:33:15.205Z,7.40
2023-02-19T12:35:48.083Z,7.00
2023-02-19T12:38:39.603Z,7.10
2023-02-19T12:41:43.424Z,6.80
2023-02-19T12:44:22.581Z,6.30
2023-02-19T12:46:55.800Z,6.10
2023-02-19T12:49:39.659Z,5.90
2023-02-19T12:52:16.995Z,5.80
2023-02-19T12:54:50.778Z,5.50
2023-02-19T12:57:29.870Z,5.50
2023-02-19T13:00:05.145Z,5.50
2023-02-19T13:02:58.127Z,5.60
2023-02-19T13:05:28.766Z,5.80
2023-02-19T13:08:13.182Z,6.00
2023-02-19T13:10:52.287Z,6.00
2023-02-19T13:13:38.577Z,6.40
2023-02-19T13:16:19.037Z,6.60
2023-02-19T13:18:54.580Z,6.70
2023-02-19T13:21:43.891Z,6.40
2023-02-19T13:24:21.079Z,6.40
2023-02-19T13:27:11.034Z,6.40
2023-02-19T13:30:06.369Z,6.40
2023-02-19T13:32:49.092Z,6.50
2023-02-19T13:35:29.959Z,6.30
2023-02-19T13:38:02.418Z,6.40
2023-02-19T13:40:36.314Z,6.50
2023-02-19T13:43:08.048Z,6.50
2023-02-19T13:45:40.353Z,6.40
2023-02-19T13:48:25.665Z,6.10
2023-02-19T13:51:23.996Z,6.00
2023-02-19T13:53:59.916Z,6.00
2023-02-19T13:56:31.027Z,6.10
2023-02-19T13:59:39.294Z,6.30
2023-02-19T14:02:22.755Z,6.50
2023-02-19T14:05:00.678Z,6.50
2023-02-19T14:07:31.953Z,6.30
2023-02-19T14:10:01.961Z,6.10
2023-02-19T14:12:35.476Z,6.10
2023-02-19T14:15:50.056Z,6.10
2023-02-19T14:18:45.762Z,6.00
2023-02-19T14:21:28.209Z,6.00
2023-02-19T14:23:58.952Z,5.90
2023-02-19T14:26:30.428Z,5.80
2023-02-19T14:29:01.773Z,5.80
2023-02-19T14:31:40.570Z,5.70
2023-02-19T14:34:23.465Z,5.70
2023-02-19T14:36:56.603Z,5.70
2023-02-19T14:39:38.352Z,5.80
2023-02-19T14:42:34.283Z,5.90
2023-02-19T14:45:07.205Z,6.00
2023-02-19T14:47:37.309Z,5.90
2023-02-19T14:50:15.319Z,6.00
2023-02-19T14:52:48.243Z,5.90
2023-02-19T14:55:35.370Z,5.90
2023-02-19T14:58:33.398Z,5.80
2023-02-19T15:01:01.575Z,5.80
2023-02-19T15:03:35.854Z,5.70
2023-02-19T15:06:09.247Z,5.70
2023-02-19T15:08:50.398Z,5.70
2023-02-19T15:11:21.774Z,5.80
2023-02-19T15:13:58.716Z,5.60
2023-02-19T15:16:27.541Z,5.50
2023-02-19T15:18:57.396Z,5.30
2023-02-19T15:21:33.199Z,5.30
2023-02-19T15:24:05.329Z,5.30
2023-02-19T15:26:39.011Z,5.40
2023-02-19T15:29:13.839Z,5.40
2023-02-19T15:32:01.418Z,5.40
2023-02-19T15:34:31.797Z,5.50
2023-02-19T15:37:02.757Z,5.50
2023-02-19T15:39:53.386Z,5.50
2023-02-19T15:42:25.611Z,5.40
2023-02-19T15:45:04.552Z,5.20
2023-02-19T15:47:55.968Z,5.10
2023-02-19T15:50:32.876Z,5.00
2023-02-19T15:53:19.451Z,5.00
2023-02-19T15:56:09.574Z,5.00
2023-02-19T15:58:48.914Z,5.10
2023-02-19T16:01:25.351Z,5.10
2023-02-19T16:03:56.146Z,5.20
2023-02-19T16:06:25.414Z,5.20
2023-02-19T16:08:52.964Z,5.10
2023-02-19T16:11:23.494Z,5.10
2023-02-19T16:14:24.104Z,5.10
2023-02-19T16:17:12.706Z,5.00
2023-02-19T16:19:53.505Z,4.90
2023-02-19T16:22:27.362Z,4.90
2023-02-19T16:25:04.764Z,5.00
2023-02-19T16:27:38.648Z,5.00
2023-02-19T16:30:19.007Z,4.90
2023-02-19T16:32:47.490Z,4.80
2023-02-19T16:35:43.632Z,4.80
2023-02-19T16:38:16.934Z,4.70
2023-02-19T16:40:48.535Z,4.70
2023-02-19T16:43:17.186Z,4.70
2023-02-19T16:45:45.825Z,4.70
2023-02-19T16:48:14.012Z,4.70
2023-02-19T16:50:42.572Z,4.60
2023-02-19T16:53:22.770Z,4.70
2023-02-19T16:55:50.790Z,4.70
2023-02-19T16:58:18.508Z,4.90
2023-02-19T17:00:46.866Z,4.90
2023-02-19T17:03:20.508Z,4.80
2023-02-19T17:05:49.577Z,4.80
2023-02-19T17:08:38.785Z,4.90
2023-02-19T17:11:12.402Z,4.90
2023-02-19T17:13:41.255Z,4.80
2023-02-19T17:16:10.951Z,4.90
2023-02-19T17:18:39.178Z,4.90
2023-02-19T17:21:23.264Z,4.90
2023-02-19T17:23:51.851Z,4.90
2023-02-19T17:26:25.251Z,4.70
2023-02-19T17:28:53.694Z,4.60
2023-02-19T17:31:20.991Z,4.60
2023-02-19T17:33:51.277Z,4.60
2023-02-19T17:36:26.912Z,4.60
2023-02-19T17:38:57.073Z,4.60
2023-02-19T17:41:25.374Z,4.50
2023-02-19T17:43:53.932Z,4.40
2023-02-19T17:46:27.791Z,4.40
2023-02-19T17:48:57.274Z,4.50
2023-02-19T17:51:26.843Z,4.50
2023-02-19T17:53:55.551Z,4.50
2023-02-19T17:56:26.351Z,4.50
2023-02-19T17:58:55.983Z,4.60
2023-02-19T18:01:24.945Z,4.60
2023-02-19T18:03:55.384Z,4.50
2023-02-19T18:06:23.248Z,4.50
2023-02-19T18:08:53.386Z,4.40
2023-02-19T18:11:23.005Z,4.40
2023-02-19T18:13:52.708Z,4.30
2023-02-19T18:16:20.654Z,4.30
2023-02-19T18:18:49.260Z,4.30
2023-02-19T18:21:16.402Z,4.30
2023-02-19T18:23:43.924Z,4.20
2023-02-19T18:26:11.995Z,4.20
2023-02-19T18:28:41.074Z,4.20
2023-02-19T18:31:08.410Z,4.20
2023-02-19T18:33:35.947Z,4.20
2023-02-19T18:36:04.698Z,4.10
2023-02-19T18:38:32.333Z,4.10
2023-02-19T18:41:01.231Z,4.00
2023-02-19T18:43:30.018Z,3.90
2023-02-19T18:45:57.864Z,3.80
2023-02-19T18:48:25.435Z,3.70
2023-02-19T18:50:52.593Z,3.70
2023-02-19T18:53:20.844Z,3.60
2023-02-19T18:55:48.090Z,3.60
2023-02-19T18:58:15.834Z,3.70
2023-02-19T19:00:42.998Z,3.60
2023-02-19T19:03:10.667Z,3.60
2023-02-19T19:05:37.956Z,3.60
2023-02-19T19:08:05.595Z,3.50
2023-02-19T19:10:32.803Z,3.50
2023-02-19T19:13:01.361Z,3.40
2023-02-19T19:15:28.775Z,3.40
2023-02-19T19:17:56.616Z,3.30
2023-02-19T19:20:24.293Z,3.40
2023-02-19T19:22:53.332Z,3.40
2023-02-19T19:25:23.026Z,3.40
2023-02-19T19:27:54.606Z,3.40
2023-02-19T19:30:22.217Z,3.20
2023-02-19T19:32:52.079Z,3.00
2023-02-19T19:35:20.484Z,2.90
2023-02-19T19:37:48.108Z,2.80
2023-02-19T19:40:19.093Z,2.70
2023-02-19T19:42:46.954Z,2.70
2023-02-19T19:45:14.666Z,2.70
2023-02-19T19:47:42.213Z,2.60
2023-02-19T19:50:12.243Z,2.70
2023-02-19T19:52:39.849Z,2.70
2023-02-19T19:55:07.467Z,2.70
2023-02-19T19:57:34.932Z,2.70
2023-02-19T20:00:02.760Z,2.70
2023-02-19T20:02:30.413Z,2.80
2023-02-19T20:04:59.279Z,2.80
2023-02-19T20:07:29.696Z,2.90
2023-02-19T20:09:58.435Z,2.80
2023-02-19T20:12:26.952Z,3.00
2023-02-19T20:14:54.000Z,2.90
2023-02-19T20:17:21.757Z,2.80
2023-02-19T20:19:49.968Z,2.80
2023-02-19T20:22:18.111Z,2.80
2023-02-19T20:24:49.442Z,2.80
2023-02-19T20:27:20.259Z,2.60
2023-02-19T20:29:49.331Z,2.60
2023-02-19T20:32:19.999Z,2.60
2023-02-19T20:34:49.399Z,2.70
2023-02-19T20:37:17.265Z,2.60
2023-02-19T20:39:47.578Z,2.50
2023-02-19T20:42:17.034Z,2.50
2023-02-19T20:44:45.077Z,2.40
2023-02-19T20:47:14.439Z,2.50
2023-02-19T20:49:47.870Z,2.50
2023-02-19T20:52:19.292Z,2.50
2023-02-19T20:54:47.693Z,2.50
2023-02-19T20:57:15.996Z,2.50
2023-02-19T20:59:44.400Z,2.40
2023-02-19T21:02:21.828Z,2.50
2023-02-19T21:04:50.564Z,2.50
2023-02-19T21:07:18.371Z,2.50
2023-02-19T21:09:45.700Z,2.50
2023-02-19T21:12:14.112Z,2.40
2023-02-19T21:14:41.633Z,2.50
2023-02-19T21:17:09.840Z,2.40
2023-02-19T21:19:37.586Z,2.20
2023-02-19T21:22:05.149Z,2.20
2023-02-19T21:24:34.054Z,2.20
2023-02-19T21:27:04.113Z,2.20
2023-02-19T21:29:31.222Z,2.30
2023-02-19T21:31:59.614Z,2.20
2023-02-19T21:34:29.300Z,2.20
2023-02-19T21:37:00.556Z,2.20
2023-02-19T21:39:28.673Z,2.00
2023-02-19T21:42:02.780Z,2.00
2023-02-19T21:44:31.736Z,2.00
2023-02-19T21:46:59.334Z,2.00
2023-02-19T21:49:28.275Z,1.90
2023-02-19T21:51:55.749Z,1.90
2023-02-19T21:54:30.850Z,1.90
2023-02-19T21:57:02.893Z,1.80
2023-02-19T21:59:33.370Z,1.80
2023-02-19T22:02:03.552Z,1.90
2023-02-19T22:04:33.979Z,1.90
2023-02-19T22:07:01.409Z,1.80
2023-02-19T22:09:28.884Z,1.70
2023-02-19T22:11:57.126Z,1.80
2023-02-19T22:14:24.269Z,1.80
2023-02-19T22:16:51.977Z,1.70
2023-02-19T22:19:19.897Z,1.70
2023-02-19T22:21:47.999Z,1.70
2023-02-19T22:24:18.429Z,1.60
2023-02-19T22:26:46.360Z,1.60
2023-02-19T22:29:15.513Z,1.50
2023-02-19T22:31:43.795Z,1.50
2023-02-19T22:34:11.084Z,1.40
2023-02-19T22:36:39.553Z,1.40
2023-02-19T22:39:09.799Z,1.40
2023-02-19T22:41:43.357Z,1.60
2023-02-19T22:44:11.665Z,1.60
2023-02-19T22:46:48.310Z,1.50
2023-02-19T22:49:16.716Z,1.60
2023-02-19T22:51:50.564Z,1.60
2023-02-19T22:54:18.418Z,1.70
2023-02-19T22:56:46.368Z,1.70
2023-02-19T22:59:13.499Z,1.60
2023-02-19T23:01:41.027Z,1.70
2023-02-19T23:04:10.533Z,1.80
2023-02-19T23:06:40.764Z,1.80
2023-02-19T23:09:15.867Z,1.90
2023-02-19T23:11:43.536Z,1.90
2023-02-19T23:14:10.653Z,1.90
2023-02-19T23:16:38.262Z,1.90
2023-02-19T23:19:13.772Z,1.80
2023-02-19T23:21:43.773Z,1.80
2023-02-19T23:24:12.245Z,1.90
2023-02-19T23:26:48.011Z,2.00
2023-02-19T23:29:20.117Z,2.10
2023-02-19T23:31:56.418Z,2.10
2023-02-19T23:34:24.511Z,2.20
2023-02-19T23:36:52.120Z,2.30
2023-02-19T23:39:21.584Z,2.20
2023-02-19T23:41:53.111Z,2.30
2023-02-19T23:44:21.770Z,2.30
2023-02-19T23:46:51.039Z,2.20
2023-02-19T23:49:19.335Z,2.20
2023-02-19T23:51:47.104Z,2.00
2023-02-19T23:54:14.653Z,2.10
2023-02-19T23:56:42.353Z,1.80
2023-02-19T23:59:10.417Z,1.80
